sensor_id;sensor_type;location;lat;lon;timestamp;pressure;altitude;pressure_sealevel;temperature;humidity
16544;BME280;8384;47.996;7.786;2023-04-05T00:00:48;99249.94;;;2.33;50.23
16544;BME280;8384;47.996;7.786;2023-04-05T00:03:14;99259.78;;;2.19;49.98
16544;BME280;8384;47.996;7.786;2023-04-05T00:05:42;99241.59;;;2.28;49.13
16544;BME280;8384;47.996;7.786;2023-04-05T00:08:07;99238.22;;;1.98;49.77
16544;BME280;8384;47.996;7.786;2023-04-05T00:10:37;99253.63;;;2.04;50.79
16544;BME280;8384;47.996;7.786;2023-04-05T00:13:03;99261.13;;;2.08;50.62
16544;BME280;8384;47.996;7.786;2023-04-05T00:15:28;99248.69;;;2.07;50.03
16544;BME280;8384;47.996;7.786;2023-04-05T00:17:56;99257.84;;;2.13;50.03
16544;BME280;8384;47.996;7.786;2023-04-05T00:20:22;99260.69;;;2.27;49.55
16544;BME280;8384;47.996;7.786;2023-04-05T00:22:47;99247.56;;;2.23;48.98
16544;BME280;8384;47.996;7.786;2023-04-05T00:25:15;99256.28;;;1.97;50.10
16544;BME280;8384;47.996;7.786;2023-04-05T00:27:43;99249.16;;;2.39;47.67
16544;BME280;8384;47.996;7.786;2023-04-05T00:30:08;99256.41;;;2.39;49.17
16544;BME280;8384;47.996;7.786;2023-04-05T00:32:34;99251.06;;;2.46;48.78
16544;BME280;8384;47.996;7.786;2023-04-05T00:35:00;99261.56;;;2.12;50.57
16544;BME280;8384;47.996;7.786;2023-04-05T00:37:25;99227.28;;;2.28;50.34
16544;BME280;8384;47.996;7.786;2023-04-05T00:39:50;99252.59;;;2.05;51.18
16544;BME280;8384;47.996;7.786;2023-04-05T00:42:17;99250.56;;;1.85;51.72
16544;BME280;8384;47.996;7.786;2023-04-05T00:44:43;99225.75;;;1.97;52.37
16544;BME280;8384;47.996;7.786;2023-04-05T00:47:08;99246.25;;;1.69;54.00
16544;BME280;8384;47.996;7.786;2023-04-05T00:49:34;99218.13;;;1.05;56.05
16544;BME280;8384;47.996;7.786;2023-04-05T00:52:01;99219.59;;;1.59;54.46
16544;BME280;8384;47.996;7.786;2023-04-05T00:54:27;99238.34;;;1.68;54.60
16544;BME280;8384;47.996;7.786;2023-04-05T00:56:56;99234.69;;;1.75;52.51
16544;BME280;8384;47.996;7.786;2023-04-05T00:59:22;99238.22;;;1.98;50.54
16544;BME280;8384;47.996;7.786;2023-04-05T01:01:50;99245.59;;;1.89;51.22
16544;BME280;8384;47.996;7.786;2023-04-05T01:04:24;99240.66;;;1.92;50.23
16544;BME280;8384;47.996;7.786;2023-04-05T01:09:57;99238.22;;;1.98;50.26
16544;BME280;8384;47.996;7.786;2023-04-05T01:12:26;99201.41;;;1.83;50.47
16544;BME280;8384;47.996;7.786;2023-04-05T01:14:54;99221.91;;;2.06;50.57
16544;BME280;8384;47.996;7.786;2023-04-05T01:17:24;99187.50;;;1.86;49.75
16544;BME280;8384;47.996;7.786;2023-04-05T01:19:55;99200.09;;;2.01;49.52
16544;BME280;8384;47.996;7.786;2023-04-05T01:30:43;99203.28;;;2.11;50.11
16544;BME280;8384;47.996;7.786;2023-04-05T01:33:24;99193.94;;;2.07;49.37
16544;BME280;8384;47.996;7.786;2023-04-05T01:36:00;99189.75;;;2.33;48.64
16544;BME280;8384;47.996;7.786;2023-04-05T01:38:28;99200.00;;;2.16;49.76
16544;BME280;8384;47.996;7.786;2023-04-05T01:40:54;99192.91;;;2.08;50.56
16544;BME280;8384;47.996;7.786;2023-04-05T01:43:20;99185.34;;;2.25;49.63
16544;BME280;8384;47.996;7.786;2023-04-05T01:45:45;99197.03;;;2.39;49.45
16544;BME280;8384;47.996;7.786;2023-04-05T01:48:12;99184.28;;;2.26;48.93
16544;BME280;8384;47.996;7.786;2023-04-05T01:50:37;99166.56;;;2.10;48.97
16544;BME280;8384;47.996;7.786;2023-04-05T01:53:03;99184.47;;;2.18;49.71
16544;BME280;8384;47.996;7.786;2023-04-05T01:55:28;99186.91;;;2.13;49.63
16544;BME280;8384;47.996;7.786;2023-04-05T01:57:55;99186.53;;;2.16;49.16
16544;BME280;8384;47.996;7.786;2023-04-05T02:00:21;99176.28;;;2.33;48.78
16544;BME280;8384;47.996;7.786;2023-04-05T02:02:46;99179.50;;;2.50;49.01
16544;BME280;8384;47.996;7.786;2023-04-05T02:05:12;99181.16;;;2.51;50.90
16544;BME280;8384;47.996;7.786;2023-04-05T02:07:37;99180.34;;;2.22;52.17
16544;BME280;8384;47.996;7.786;2023-04-05T02:10:03;99158.78;;;2.22;52.31
16544;BME280;8384;47.996;7.786;2023-04-05T02:12:28;99180.81;;;2.32;52.74
16544;BME280;8384;47.996;7.786;2023-04-05T02:14:54;99173.63;;;1.89;53.92
16544;BME280;8384;47.996;7.786;2023-04-05T02:17:19;99178.59;;;1.86;54.64
16544;BME280;8384;47.996;7.786;2023-04-05T02:19:45;99172.38;;;1.63;55.72
16544;BME280;8384;47.996;7.786;2023-04-05T02:22:12;99173.91;;;1.73;54.99
16544;BME280;8384;47.996;7.786;2023-04-05T02:24:37;99161.41;;;1.43;55.80
16544;BME280;8384;47.996;7.786;2023-04-05T02:27:03;99162.28;;;1.50;56.28
16544;BME280;8384;47.996;7.786;2023-04-05T02:29:28;99158.78;;;1.50;56.94
16544;BME280;8384;47.996;7.786;2023-04-05T02:31:56;99170.06;;;1.39;56.00
16544;BME280;8384;47.996;7.786;2023-04-05T02:34:21;99162.28;;;1.29;57.25
16544;BME280;8384;47.996;7.786;2023-04-05T02:36:50;99165.88;;;1.14;58.00
16544;BME280;8384;47.996;7.786;2023-04-05T02:39:16;99166.19;;;1.04;59.07
16544;BME280;8384;47.996;7.786;2023-04-05T02:41:42;99143.28;;;0.79;59.76
16544;BME280;8384;47.996;7.786;2023-04-05T02:44:07;99165.69;;;1.01;59.53
16544;BME280;8384;47.996;7.786;2023-04-05T02:46:32;99160.97;;;1.03;59.61
16544;BME280;8384;47.996;7.786;2023-04-05T02:48:58;99152.97;;;0.95;60.58
16544;BME280;8384;47.996;7.786;2023-04-05T02:51:23;99167.50;;;0.79;61.03
16544;BME280;8384;47.996;7.786;2023-04-05T02:53:48;99166.09;;;0.68;61.50
16544;BME280;8384;47.996;7.786;2023-04-05T02:56:14;99170.22;;;-0.05;66.26
16544;BME280;8384;47.996;7.786;2023-04-05T02:58:39;99164.16;;;-0.22;67.58
16544;BME280;8384;47.996;7.786;2023-04-05T03:01:05;99171.06;;;-0.04;67.18
16544;BME280;8384;47.996;7.786;2023-04-05T03:03:31;99160.03;;;-0.33;68.73
16544;BME280;8384;47.996;7.786;2023-04-05T03:06:01;99155.59;;;-0.02;67.60
16544;BME280;8384;47.996;7.786;2023-04-05T03:08:38;99163.28;;;0.01;67.28
16544;BME280;8384;47.996;7.786;2023-04-05T03:11:08;99144.72;;;-0.09;67.02
16544;BME280;8384;47.996;7.786;2023-04-05T03:13:34;99167.38;;;-0.03;66.97
16544;BME280;8384;47.996;7.786;2023-04-05T03:16:00;99165.53;;;-0.26;68.17
16544;BME280;8384;47.996;7.786;2023-04-05T03:18:25;99158.00;;;-0.07;68.08
16544;BME280;8384;47.996;7.786;2023-04-05T03:20:52;99173.19;;;-0.61;69.24
16544;BME280;8384;47.996;7.786;2023-04-05T03:23:25;99167.91;;;-0.78;70.79
16544;BME280;8384;47.996;7.786;2023-04-05T03:25:53;99149.94;;;-1.00;70.91
16544;BME280;8384;47.996;7.786;2023-04-05T03:28:20;99152.72;;;-1.25;72.42
16544;BME280;8384;47.996;7.786;2023-04-05T03:30:45;99124.66;;;-1.46;72.63
16544;BME280;8384;47.996;7.786;2023-04-05T03:33:10;99161.13;;;-1.28;72.47
16544;BME280;8384;47.996;7.786;2023-04-05T03:35:36;99156.03;;;-1.07;71.39
16544;BME280;8384;47.996;7.786;2023-04-05T03:38:01;99153.81;;;-1.34;71.97
16544;BME280;8384;47.996;7.786;2023-04-05T03:40:26;99150.94;;;-1.33;72.05
16544;BME280;8384;47.996;7.786;2023-04-05T03:42:51;99158.91;;;-1.16;71.69
16544;BME280;8384;47.996;7.786;2023-04-05T03:45:17;99107.03;;;-1.40;71.40
16544;BME280;8384;47.996;7.786;2023-04-05T03:47:43;99142.84;;;-1.25;71.85
16544;BME280;8384;47.996;7.786;2023-04-05T03:50:08;99159.44;;;-1.21;72.68
16544;BME280;8384;47.996;7.786;2023-04-05T03:52:34;99142.91;;;-1.41;72.84
16544;BME280;8384;47.996;7.786;2023-04-05T03:55:00;99153.03;;;-1.60;74.18
16544;BME280;8384;47.996;7.786;2023-04-05T03:57:26;99143.72;;;-1.81;75.93
16544;BME280;8384;47.996;7.786;2023-04-05T03:59:53;99151.88;;;-1.66;75.47
16544;BME280;8384;47.996;7.786;2023-04-05T04:02:18;99143.13;;;-1.51;74.74
16544;BME280;8384;47.996;7.786;2023-04-05T04:04:44;99125.00;;;-1.09;72.78
16544;BME280;8384;47.996;7.786;2023-04-05T04:07:09;99157.09;;;-0.93;72.38
16544;BME280;8384;47.996;7.786;2023-04-05T04:09:34;99162.25;;;-1.14;73.25
16544;BME280;8384;47.996;7.786;2023-04-05T04:12:00;99147.81;;;-1.13;73.80
16544;BME280;8384;47.996;7.786;2023-04-05T04:14:25;99161.97;;;-0.96;73.44
16544;BME280;8384;47.996;7.786;2023-04-05T04:16:50;99167.69;;;-0.68;72.23
16544;BME280;8384;47.996;7.786;2023-04-05T04:19:18;99153.41;;;-0.92;72.47
16544;BME280;8384;47.996;7.786;2023-04-05T04:21:44;99156.81;;;-1.38;75.11
16544;BME280;8384;47.996;7.786;2023-04-05T04:24:18;99154.94;;;-1.29;75.32
16544;BME280;8384;47.996;7.786;2023-04-05T04:26:47;99127.47;;;-1.79;76.60
16544;BME280;8384;47.996;7.786;2023-04-05T04:29:13;99145.31;;;-1.46;76.71
16544;BME280;8384;47.996;7.786;2023-04-05T04:31:41;99138.75;;;-1.44;75.10
16544;BME280;8384;47.996;7.786;2023-04-05T04:34:10;99156.50;;;-1.43;76.12
16544;BME280;8384;47.996;7.786;2023-04-05T04:36:36;99156.38;;;-1.49;76.91
16544;BME280;8384;47.996;7.786;2023-04-05T04:39:03;99150.00;;;-1.48;76.48
16544;BME280;8384;47.996;7.786;2023-04-05T04:41:30;99157.31;;;-1.42;76.45
16544;BME280;8384;47.996;7.786;2023-04-05T04:44:01;99133.47;;;-1.69;77.19
16544;BME280;8384;47.996;7.786;2023-04-05T04:46:28;99162.63;;;-1.66;78.48
16544;BME280;8384;47.996;7.786;2023-04-05T04:48:55;99149.56;;;-1.69;78.51
16544;BME280;8384;47.996;7.786;2023-04-05T04:51:21;99144.53;;;-1.72;77.87
16544;BME280;8384;47.996;7.786;2023-04-05T04:53:47;99151.03;;;-1.66;77.91
16544;BME280;8384;47.996;7.786;2023-04-05T04:56:12;99169.63;;;-1.16;76.98
16544;BME280;8384;47.996;7.786;2023-04-05T04:58:38;99173.72;;;-1.29;77.06
16544;BME280;8384;47.996;7.786;2023-04-05T05:01:07;99167.56;;;-1.06;76.36
16544;BME280;8384;47.996;7.786;2023-04-05T05:03:34;99165.34;;;-1.34;77.18
16544;BME280;8384;47.996;7.786;2023-04-05T05:06:00;99118.38;;;-1.61;77.07
16544;BME280;8384;47.996;7.786;2023-04-05T05:08:26;99162.75;;;-1.59;78.50
16544;BME280;8384;47.996;7.786;2023-04-05T05:10:52;99168.31;;;-1.69;79.19
16544;BME280;8384;47.996;7.786;2023-04-05T05:13:17;99161.28;;;-1.78;79.98
16544;BME280;8384;47.996;7.786;2023-04-05T05:15:43;99149.91;;;-1.32;78.14
16544;BME280;8384;47.996;7.786;2023-04-05T05:18:08;99177.63;;;-1.00;77.34
16544;BME280;8384;47.996;7.786;2023-04-05T05:20:34;99171.34;;;-1.80;79.38
16544;BME280;8384;47.996;7.786;2023-04-05T05:22:59;99184.81;;;-2.13;82.01
16544;BME280;8384;47.996;7.786;2023-04-05T05:25:29;99178.94;;;-2.00;81.98
16544;BME280;8384;47.996;7.786;2023-04-05T05:27:54;99173.53;;;-1.92;81.86
16544;BME280;8384;47.996;7.786;2023-04-05T05:30:20;99167.50;;;-1.94;81.96
16544;BME280;8384;47.996;7.786;2023-04-05T05:32:46;99160.91;;;-1.58;80.83
16544;BME280;8384;47.996;7.786;2023-04-05T05:35:11;99151.78;;;-1.32;79.01
16544;BME280;8384;47.996;7.786;2023-04-05T05:37:36;99184.88;;;-1.09;79.85
16544;BME280;8384;47.996;7.786;2023-04-05T05:40:02;99185.88;;;-1.10;80.38
16544;BME280;8384;47.996;7.786;2023-04-05T05:42:29;99185.94;;;-1.26;81.50
16544;BME280;8384;47.996;7.786;2023-04-05T05:44:56;99190.78;;;-1.22;82.00
16544;BME280;8384;47.996;7.786;2023-04-05T05:47:22;99190.34;;;-0.94;80.76
16544;BME280;8384;47.996;7.786;2023-04-05T05:49:47;99187.91;;;-0.80;80.28
16544;BME280;8384;47.996;7.786;2023-04-05T05:52:13;99148.97;;;-1.08;80.31
16544;BME280;8384;47.996;7.786;2023-04-05T05:54:39;99187.75;;;-0.55;79.41
16544;BME280;8384;47.996;7.786;2023-04-05T05:57:05;99192.34;;;-0.64;78.85
16544;BME280;8384;47.996;7.786;2023-04-05T05:59:30;99191.38;;;-0.25;77.76
16544;BME280;8384;47.996;7.786;2023-04-05T06:01:55;99175.56;;;-0.20;76.33
16544;BME280;8384;47.996;7.786;2023-04-05T06:04:20;99206.13;;;0.03;75.81
16544;BME280;8384;47.996;7.786;2023-04-05T06:06:46;99214.31;;;-0.14;76.42
16544;BME280;8384;47.996;7.786;2023-04-05T06:09:13;99216.66;;;0.04;75.79
16544;BME280;8384;47.996;7.786;2023-04-05T06:11:39;99206.00;;;-0.04;76.00
16544;BME280;8384;47.996;7.786;2023-04-05T06:14:04;99205.00;;;-0.03;76.18
16544;BME280;8384;47.996;7.786;2023-04-05T06:16:30;99181.13;;;-0.21;76.24
16544;BME280;8384;47.996;7.786;2023-04-05T06:18:56;99202.56;;;0.02;75.83
16544;BME280;8384;47.996;7.786;2023-04-05T06:21:21;99205.03;;;0.12;75.76
16544;BME280;8384;47.996;7.786;2023-04-05T06:23:46;99191.69;;;0.19;75.33
16544;BME280;8384;47.996;7.786;2023-04-05T06:26:22;99199.94;;;0.32;75.07
16544;BME280;8384;47.996;7.786;2023-04-05T06:28:51;99199.28;;;0.30;75.12
16544;BME280;8384;47.996;7.786;2023-04-05T06:31:19;99198.66;;;0.43;74.50
16544;BME280;8384;47.996;7.786;2023-04-05T06:33:45;99192.91;;;0.46;74.42
16544;BME280;8384;47.996;7.786;2023-04-05T06:36:10;99180.31;;;0.32;74.33
16544;BME280;8384;47.996;7.786;2023-04-05T06:38:36;99199.59;;;0.50;74.87
16544;BME280;8384;47.996;7.786;2023-04-05T06:41:01;99177.44;;;0.48;75.07
16544;BME280;8384;47.996;7.786;2023-04-05T06:43:27;99185.06;;;0.59;74.87
16544;BME280;8384;47.996;7.786;2023-04-05T06:45:54;99188.19;;;0.48;74.41
16544;BME280;8384;47.996;7.786;2023-04-05T06:48:21;99184.69;;;0.63;73.25
16544;BME280;8384;47.996;7.786;2023-04-05T06:50:55;99202.66;;;0.77;74.10
16544;BME280;8384;47.996;7.786;2023-04-05T06:53:20;99185.13;;;0.66;73.97
16544;BME280;8384;47.996;7.786;2023-04-05T06:55:49;99199.03;;;0.70;75.08
16544;BME280;8384;47.996;7.786;2023-04-05T06:58:17;99191.38;;;0.52;74.98
16544;BME280;8384;47.996;7.786;2023-04-05T07:00:42;99211.97;;;0.74;75.52
16544;BME280;8384;47.996;7.786;2023-04-05T07:03:07;99202.50;;;0.79;73.41
16544;BME280;8384;47.996;7.786;2023-04-05T07:05:32;99215.00;;;0.86;73.17
16544;BME280;8384;47.996;7.786;2023-04-05T07:07:58;99212.69;;;0.98;72.69
16544;BME280;8384;47.996;7.786;2023-04-05T07:10:23;99209.13;;;1.13;69.90
16544;BME280;8384;47.996;7.786;2023-04-05T07:12:49;99205.91;;;1.39;69.93
16544;BME280;8384;47.996;7.786;2023-04-05T07:15:15;99179.66;;;1.26;67.84
16544;BME280;8384;47.996;7.786;2023-04-05T07:17:40;99186.22;;;1.39;68.04
16544;BME280;8384;47.996;7.786;2023-04-05T07:20:06;99188.34;;;1.43;67.83
16544;BME280;8384;47.996;7.786;2023-04-05T07:22:32;99211.13;;;1.62;67.50
16544;BME280;8384;47.996;7.786;2023-04-05T07:24:58;99214.13;;;1.74;67.92
16544;BME280;8384;47.996;7.786;2023-04-05T07:27:23;99210.03;;;1.78;65.49
16544;BME280;8384;47.996;7.786;2023-04-05T07:29:48;99219.69;;;2.16;64.33
16544;BME280;8384;47.996;7.786;2023-04-05T07:32:14;99218.06;;;2.44;62.23
16544;BME280;8384;47.996;7.786;2023-04-05T07:34:39;99221.41;;;2.46;63.49
16544;BME280;8384;47.996;7.786;2023-04-05T07:37:05;99186.19;;;2.25;63.21
16544;BME280;8384;47.996;7.786;2023-04-05T07:39:31;99197.38;;;2.51;61.62
16544;BME280;8384;47.996;7.786;2023-04-05T07:41:57;99221.38;;;2.74;63.08
16544;BME280;8384;47.996;7.786;2023-04-05T07:44:22;99217.81;;;3.09;59.36
16544;BME280;8384;47.996;7.786;2023-04-05T07:46:47;99227.00;;;3.14;59.88
16544;BME280;8384;47.996;7.786;2023-04-05T07:49:13;99214.06;;;3.10;59.07
16544;BME280;8384;47.996;7.786;2023-04-05T07:51:38;99214.69;;;3.12;58.53
16544;BME280;8384;47.996;7.786;2023-04-05T07:54:04;99217.03;;;3.22;58.35
16544;BME280;8384;47.996;7.786;2023-04-05T07:56:30;99220.03;;;3.40;59.03
16544;BME280;8384;47.996;7.786;2023-04-05T07:58:56;99225.28;;;3.75;56.84
16544;BME280;8384;47.996;7.786;2023-04-05T08:01:21;99225.28;;;3.69;55.83
16544;BME280;8384;47.996;7.786;2023-04-05T08:03:51;99231.75;;;3.74;55.92
16544;BME280;8384;47.996;7.786;2023-04-05T08:06:16;99204.69;;;3.54;56.78
16544;BME280;8384;47.996;7.786;2023-04-05T08:08:43;99220.34;;;3.79;55.44
16544;BME280;8384;47.996;7.786;2023-04-05T08:11:08;99222.22;;;4.05;54.72
16544;BME280;8384;47.996;7.786;2023-04-05T08:13:33;99228.28;;;4.34;53.17
16544;BME280;8384;47.996;7.786;2023-04-05T08:16:00;99226.97;;;4.64;54.63
16544;BME280;8384;47.996;7.786;2023-04-05T08:18:26;99213.59;;;5.03;50.57
16544;BME280;8384;47.996;7.786;2023-04-05T08:20:55;99217.19;;;4.70;51.00
16544;BME280;8384;47.996;7.786;2023-04-05T08:23:21;99210.03;;;5.02;53.07
16544;BME280;8384;47.996;7.786;2023-04-05T08:25:46;99216.78;;;5.32;51.28
16544;BME280;8384;47.996;7.786;2023-04-05T08:28:12;99210.94;;;5.42;52.77
16544;BME280;8384;47.996;7.786;2023-04-05T08:30:38;99216.78;;;5.32;53.70
16544;BME280;8384;47.996;7.786;2023-04-05T08:33:03;99213.63;;;5.42;53.39
16544;BME280;8384;47.996;7.786;2023-04-05T08:35:29;99204.28;;;5.31;52.10
16544;BME280;8384;47.996;7.786;2023-04-05T08:37:55;99206.66;;;5.07;49.77
16544;BME280;8384;47.996;7.786;2023-04-05T08:40:20;99218.56;;;4.99;51.86
16544;BME280;8384;47.996;7.786;2023-04-05T08:42:51;99212.09;;;5.14;50.29
16544;BME280;8384;47.996;7.786;2023-04-05T08:45:22;99148.66;;;4.76;48.61
16544;BME280;8384;47.996;7.786;2023-04-05T08:47:51;99205.34;;;5.23;48.88
16544;BME280;8384;47.996;7.786;2023-04-05T08:50:17;99218.00;;;5.43;49.16
16544;BME280;8384;47.996;7.786;2023-04-05T08:52:45;99211.91;;;5.54;48.07
16544;BME280;8384;47.996;7.786;2023-04-05T08:55:14;99212.16;;;5.39;45.58
16544;BME280;8384;47.996;7.786;2023-04-05T08:57:42;99210.88;;;5.48;46.42
16544;BME280;8384;47.996;7.786;2023-04-05T09:00:08;99185.41;;;5.56;46.03
16544;BME280;8384;47.996;7.786;2023-04-05T09:02:34;99216.22;;;6.00;42.23
16544;BME280;8384;47.996;7.786;2023-04-05T09:05:01;99207.16;;;5.81;41.82
16544;BME280;8384;47.996;7.786;2023-04-05T09:07:28;99203.88;;;6.05;40.37
16544;BME280;8384;47.996;7.786;2023-04-05T09:09:55;99203.72;;;6.25;36.24
16544;BME280;8384;47.996;7.786;2023-04-05T09:12:24;99209.84;;;6.64;37.68
16544;BME280;8384;47.996;7.786;2023-04-05T09:14:51;99199.09;;;6.95;38.17
16544;BME280;8384;47.996;7.786;2023-04-05T09:17:17;99212.88;;;7.30;40.99
16544;BME280;8384;47.996;7.786;2023-04-05T09:19:43;99208.63;;;7.53;36.65
16544;BME280;8384;47.996;7.786;2023-04-05T09:22:09;99204.97;;;7.10;38.18
16544;BME280;8384;47.996;7.786;2023-04-05T09:24:36;99194.25;;;7.15;39.67
16544;BME280;8384;47.996;7.786;2023-04-05T09:27:15;99209.06;;;7.01;37.54
16544;BME280;8384;47.996;7.786;2023-04-05T09:29:43;99162.53;;;6.90;37.74
16544;BME280;8384;47.996;7.786;2023-04-05T09:32:11;99172.41;;;7.22;38.26
16544;BME280;8384;47.996;7.786;2023-04-05T09:34:37;99192.13;;;6.80;39.05
16544;BME280;8384;47.996;7.786;2023-04-05T09:37:16;99190.47;;;6.98;37.93
16544;BME280;8384;47.996;7.786;2023-04-05T09:39:44;99173.09;;;6.62;38.95
16544;BME280;8384;47.996;7.786;2023-04-05T09:42:13;99184.03;;;7.29;38.73
16544;BME280;8384;47.996;7.786;2023-04-05T09:44:55;99190.28;;;7.30;38.11
16544;BME280;8384;47.996;7.786;2023-04-05T09:47:26;99176.81;;;7.54;36.56
16544;BME280;8384;47.996;7.786;2023-04-05T09:49:55;99178.00;;;8.00;34.83
16544;BME280;8384;47.996;7.786;2023-04-05T09:52:23;99193.47;;;7.88;36.82
16544;BME280;8384;47.996;7.786;2023-04-05T09:54:52;99194.25;;;7.64;38.53
16544;BME280;8384;47.996;7.786;2023-04-05T09:57:17;99193.25;;;7.59;35.87
16544;BME280;8384;47.996;7.786;2023-04-05T09:59:44;99163.69;;;7.50;37.06
16544;BME280;8384;47.996;7.786;2023-04-05T10:02:10;99171.91;;;7.74;37.28
16544;BME280;8384;47.996;7.786;2023-04-05T10:04:40;99162.13;;;7.85;37.63
16544;BME280;8384;47.996;7.786;2023-04-05T10:07:07;99163.66;;;7.93;37.23
16544;BME280;8384;47.996;7.786;2023-04-05T10:09:33;99175.16;;;7.95;37.66
16544;BME280;8384;47.996;7.786;2023-04-05T10:11:59;99168.91;;;8.06;38.30
16544;BME280;8384;47.996;7.786;2023-04-05T10:14:25;99163.56;;;8.11;38.24
16544;BME280;8384;47.996;7.786;2023-04-05T10:25:12;99165.38;;;8.77;35.59
16544;BME280;8384;47.996;7.786;2023-04-05T10:27:47;99170.25;;;8.87;36.08
16544;BME280;8384;47.996;7.786;2023-04-05T10:30:14;99177.25;;;8.83;35.30
16544;BME280;8384;47.996;7.786;2023-04-05T10:32:42;99177.47;;;8.46;35.28
16544;BME280;8384;47.996;7.786;2023-04-05T10:35:09;99177.22;;;8.95;34.08
16544;BME280;8384;47.996;7.786;2023-04-05T10:40:46;99178.72;;;9.14;35.73
16544;BME280;8384;47.996;7.786;2023-04-05T10:43:20;99179.34;;;8.93;35.82
16544;BME280;8384;47.996;7.786;2023-04-05T10:45:48;99166.56;;;8.81;35.03
16544;BME280;8384;47.996;7.786;2023-04-05T10:48:47;99166.34;;;8.71;36.07
16544;BME280;8384;47.996;7.786;2023-04-05T10:51:14;99162.91;;;8.40;36.15
16544;BME280;8384;47.996;7.786;2023-04-05T10:53:40;99165.16;;;8.79;36.55
16544;BME280;8384;47.996;7.786;2023-04-05T10:56:06;99163.63;;;8.71;37.73
16544;BME280;8384;47.996;7.786;2023-04-05T10:58:33;99155.53;;;8.29;38.16
16544;BME280;8384;47.996;7.786;2023-04-05T11:01:00;99159.31;;;8.75;36.34
16544;BME280;8384;47.996;7.786;2023-04-05T11:06:31;99161.69;;;8.95;35.78
16544;BME280;8384;47.996;7.786;2023-04-05T11:11:43;99154.31;;;9.66;35.07
16544;BME280;8384;47.996;7.786;2023-04-05T11:14:25;99153.63;;;9.29;34.44
16544;BME280;8384;47.996;7.786;2023-04-05T11:16:53;99166.63;;;9.10;35.31
16544;BME280;8384;47.996;7.786;2023-04-05T11:22:13;99150.69;;;8.78;35.10
16544;BME280;8384;47.996;7.786;2023-04-05T11:24:52;99154.47;;;8.77;35.27
16544;BME280;8384;47.996;7.786;2023-04-05T11:27:32;99157.75;;;8.91;36.45
16544;BME280;8384;47.996;7.786;2023-04-05T11:29:59;99158.13;;;8.95;36.28
16544;BME280;8384;47.996;7.786;2023-04-05T11:32:57;99145.56;;;9.64;35.96
16544;BME280;8384;47.996;7.786;2023-04-05T11:35:22;99115.66;;;9.57;34.30
16544;BME280;8384;47.996;7.786;2023-04-05T11:40:35;99141.84;;;9.87;33.47
16544;BME280;8384;47.996;7.786;2023-04-05T11:45:30;99139.47;;;9.90;33.12
16544;BME280;8384;47.996;7.786;2023-04-05T11:47:58;99124.72;;;9.74;33.87
16544;BME280;8384;47.996;7.786;2023-04-05T11:50:25;99137.97;;;10.00;33.89
16544;BME280;8384;47.996;7.786;2023-04-05T11:53:17;99126.31;;;10.04;32.62
16544;BME280;8384;47.996;7.786;2023-04-05T11:55:47;99128.38;;;10.71;32.56
16544;BME280;8384;47.996;7.786;2023-04-05T11:58:14;99125.47;;;10.77;32.65
16544;BME280;8384;47.996;7.786;2023-04-05T12:00:40;99112.25;;;11.41;31.27
16544;BME280;8384;47.996;7.786;2023-04-05T12:03:06;99123.63;;;11.55;29.69
16544;BME280;8384;47.996;7.786;2023-04-05T12:08:12;99110.34;;;11.42;30.91
16544;BME280;8384;47.996;7.786;2023-04-05T12:10:37;99118.13;;;11.50;29.72
16544;BME280;8384;47.996;7.786;2023-04-05T12:13:03;99121.25;;;11.36;30.63
16544;BME280;8384;47.996;7.786;2023-04-05T12:15:28;99092.53;;;11.39;31.10
16544;BME280;8384;47.996;7.786;2023-04-05T12:17:53;99109.25;;;12.35;30.30
16544;BME280;8384;47.996;7.786;2023-04-05T12:20:21;99096.88;;;12.81;28.94
16544;BME280;8384;47.996;7.786;2023-04-05T12:22:49;99103.75;;;13.68;28.03
16544;BME280;8384;47.996;7.786;2023-04-05T12:25:16;99104.28;;;14.27;27.19
16544;BME280;8384;47.996;7.786;2023-04-05T12:27:42;99096.25;;;14.56;26.04
16544;BME280;8384;47.996;7.786;2023-04-05T12:30:10;99092.00;;;15.00;26.28
16544;BME280;8384;47.996;7.786;2023-04-05T12:32:44;99096.88;;;15.13;25.35
16544;BME280;8384;47.996;7.786;2023-04-05T12:37:45;99072.41;;;13.48;26.35
16544;BME280;8384;47.996;7.786;2023-04-05T12:40:11;99086.03;;;12.48;27.22
16544;BME280;8384;47.996;7.786;2023-04-05T12:42:39;99090.59;;;12.32;28.55
16544;BME280;8384;47.996;7.786;2023-04-05T12:45:07;99074.63;;;12.24;27.44
16544;BME280;8384;47.996;7.786;2023-04-05T12:47:34;99087.50;;;12.71;27.96
16544;BME280;8384;47.996;7.786;2023-04-05T12:50:13;99085.16;;;13.01;27.25
16544;BME280;8384;47.996;7.786;2023-04-05T12:52:54;99081.19;;;13.55;26.09
16544;BME280;8384;47.996;7.786;2023-04-05T12:55:20;99086.16;;;14.05;26.62
16544;BME280;8384;47.996;7.786;2023-04-05T12:57:48;99078.63;;;14.62;26.34
16544;BME280;8384;47.996;7.786;2023-04-05T13:00:14;99054.91;;;14.87;24.94
16544;BME280;8384;47.996;7.786;2023-04-05T13:02:40;99051.47;;;14.40;24.64
16544;BME280;8384;47.996;7.786;2023-04-05T13:05:05;99064.03;;;12.96;27.41
16544;BME280;8384;47.996;7.786;2023-04-05T13:07:30;99053.41;;;13.31;27.47
16544;BME280;8384;47.996;7.786;2023-04-05T13:09:56;99061.75;;;12.78;28.10
16544;BME280;8384;47.996;7.786;2023-04-05T13:12:21;99066.19;;;12.89;27.68
16544;BME280;8384;47.996;7.786;2023-04-05T13:14:46;99066.91;;;13.53;27.29
16544;BME280;8384;47.996;7.786;2023-04-05T13:17:11;99073.78;;;13.50;26.75
16544;BME280;8384;47.996;7.786;2023-04-05T13:19:37;99046.56;;;12.49;27.30
16544;BME280;8384;47.996;7.786;2023-04-05T13:22:02;99067.00;;;12.84;27.23
16544;BME280;8384;47.996;7.786;2023-04-05T13:24:27;99059.66;;;13.11;27.23
16544;BME280;8384;47.996;7.786;2023-04-05T13:26:52;99030.91;;;14.01;27.13
16544;BME280;8384;47.996;7.786;2023-04-05T13:29:18;99044.22;;;14.80;25.96
16544;BME280;8384;47.996;7.786;2023-04-05T13:31:43;99051.88;;;15.39;25.73
16544;BME280;8384;47.996;7.786;2023-04-05T13:34:08;99054.34;;;16.10;23.87
16544;BME280;8384;47.996;7.786;2023-04-05T13:36:33;99044.13;;;15.41;23.41
16544;BME280;8384;47.996;7.786;2023-04-05T13:38:59;99023.31;;;14.74;24.44
16544;BME280;8384;47.996;7.786;2023-04-05T13:41:24;99021.59;;;13.50;26.05
16544;BME280;8384;47.996;7.786;2023-04-05T13:43:50;99032.31;;;13.83;25.77
16544;BME280;8384;47.996;7.786;2023-04-05T13:46:15;99036.06;;;14.44;26.40
16544;BME280;8384;47.996;7.786;2023-04-05T13:48:40;99018.84;;;13.71;26.66
16544;BME280;8384;47.996;7.786;2023-04-05T13:51:06;99026.16;;;13.03;28.18
16544;BME280;8384;47.996;7.786;2023-04-05T13:53:31;99029.59;;;13.47;27.30
16544;BME280;8384;47.996;7.786;2023-04-05T13:55:56;99028.69;;;13.26;27.13
16544;BME280;8384;47.996;7.786;2023-04-05T13:58:22;99026.38;;;12.86;29.33